Time;durP1;ratioP1;P1;durP2;ratioP2;P2;SDS_P1;SDS_P2;PMS_P1;PMS_P2;Temp;Humidity;BMP_temperature;BMP_pressure;BME280_temperature;BME280_humidity;BME280_pressure;Samples;Min_cycle;Max_cycle;Signal;HPM_P1;HPM_P2
2021/03/31 08:25:45;;;;;;;12.55;6.68;;;14.50;68.90;;;;;;5165854;27;20840;-81
2021/03/31 08:28:16;;;;;;;15.50;6.78;;;14.50;68.10;;;;;;5104339;28;20385;-82
2021/03/31 08:30:47;;;;;;;12.80;7.10;;;14.40;69.20;;;;;;5132972;28;20070;-82
2021/03/31 08:33:51;;;;;;;20.08;7.43;;;14.60;68.80;;;;;;5133091;28;20058;-82
2021/03/31 08:36:47;;;;;;;20.90;7.65;;;14.70;69.50;;;;;;5132178;28;20051;-80
2021/03/31 08:39:35;;;;;;;19.17;7.18;;;14.80;68.80;;;;;;5134880;28;20169;-80
2021/03/31 08:42:36;;;;;;;15.35;7.30;;;15.00;68.20;;;;;;5115932;28;20058;-82
2021/03/31 08:45:41;;;;;;;17.05;7.07;;;15.10;67.40;;;;;;5095818;28;20051;-84
2021/03/31 08:49:03;;;;;;;18.67;7.30;;;15.30;66.80;;;;;;5132814;27;20055;-83
2021/03/31 08:52:06;;;;;;;15.75;7.18;;;15.40;66.00;;;;;;5121296;28;20074;-84
2021/03/31 08:54:46;;;;;;;18.85;7.50;;;15.60;65.80;;;;;;5114857;28;20044;-82
2021/03/31 08:57:49;;;;;;;14.65;7.07;;;15.60;65.60;;;;;;5131295;28;20047;-83
2021/03/31 09:00:56;;;;;;;17.10;7.40;;;15.70;65.60;;;;;;5155895;27;20051;-81
2021/03/31 09:04:18;;;;;;;12.35;7.55;;;15.80;65.30;;;;;;5094136;28;20058;-81
2021/03/31 09:14:02;;;;;;;;;;;;;;;;;;;;;
2021/03/31 09:17:07;;;;;;;15.27;7.70;;;16.50;64.20;;;;;;5094865;28;20051;-81
2021/03/31 09:20:17;;;;;;;;;;;;;;;;;;;;;
2021/03/31 09:23:05;;;;;;;16.25;7.88;;;16.80;62.80;;;;;;5103885;28;20345;-79
2021/03/31 12:11:18;;;;;;;19.13;9.85;;;28.70;33.20;;;;;;5800796;24;20033;-78
2021/03/31 12:14:15;;;;;;;;;;;;;;;;;;;;;
2021/03/31 12:23:09;;;;;;;15.77;7.45;;;27.80;31.10;;;;;;5958308;24;20024;-79
2021/03/31 12:27:02;;;;;;;;;;;;;;;;;;;;;
2021/03/31 12:57:46;;;;;;;16.73;7.43;;;31.20;27.60;;;;;;5003207;28;20065;-80
2021/03/31 13:00:58;;;;;;;;;;;;;;;;;;;;;
2021/03/31 13:03:38;;;;;;;17.40;6.47;;;33.20;26.50;;;;;;5070064;28;20060;-79
2021/03/31 13:06:29;;;;;;;12.95;7.22;;;33.60;26.40;;;;;;5075717;28;20048;-79
2021/03/31 13:09:09;;;;;;;10.60;6.68;;;31.90;26.50;;;;;;5053349;28;20045;-80
2021/03/31 13:16:27;;;;;;;14.00;5.80;;;33.90;26.60;;;;;;4991996;28;20065;-81
2021/03/31 14:09:49;;;;;;;14.48;6.55;;;29.00;28.70;;;;;;5152699;27;20359;-81
2021/03/31 14:16:54;;;;;;;;;;;;;;;;;;;;;
2021/03/31 14:27:18;;;;;;;;;;;;;;;;;;;;;
2021/03/31 15:07:49;;;;;;;12.18;6.28;;;31.40;26.30;;;;;;4987516;27;20043;-80
2021/03/31 15:11:07;;;;;;;15.32;6.75;;;31.40;26.20;;;;;;5109719;27;20592;-80
2021/03/31 15:21:55;;;;;;;;;;;;;;;;;;;;;
2021/03/31 15:31:38;;;;;;;12.32;6.50;;;28.90;27.80;;;;;;4945653;28;20074;-79
2021/03/31 15:34:25;;;;;;;15.48;7.28;;;29.10;27.70;;;;;;5033748;28;20054;-82
2021/03/31 15:37:28;;;;;;;;;;;;;;;;;;;;;
2021/03/31 15:40:27;;;;;;;15.20;6.45;;;28.30;28.10;;;;;;5023779;28;20133;-81
2021/03/31 15:42:58;;;;;;;11.45;6.10;;;29.10;28.20;;;;;;5036585;28;20045;-81
2021/03/31 15:45:48;;;;;;;17.30;6.53;;;30.40;27.40;;;;;;5018474;28;20500;-81
2021/03/31 15:48:39;;;;;;;12.50;7.32;;;31.10;26.90;;;;;;5038042;28;20049;-80
2021/03/31 15:51:26;;;;;;;15.35;6.53;;;31.40;26.60;;;;;;5021173;28;20060;-81
2021/03/31 15:53:57;;;;;;;15.05;6.90;;;31.90;26.60;;;;;;5023083;27;20056;-80
2021/03/31 15:56:50;;;;;;;;;;;32.40;26.30;;;;;;5101665;27;20078;-81
2021/03/31 15:59:29;;;;;;;15.18;6.25;;;32.00;26.10;;;;;;5115538;28;19920;-81
2021/03/31 16:02:07;;;;;;;12.25;6.15;;;30.20;27.00;;;;;;5107981;27;20462;-80
2021/03/31 16:04:52;;;;;;;12.43;5.97;;;29.50;27.40;;;;;;5096395;27;20043;-80
2021/03/31 16:07:32;;;;;;;14.43;6.20;;;29.50;27.70;;;;;;5118115;27;20051;-80
2021/03/31 16:10:02;;;;;;;14.88;6.35;;;28.90;27.80;;;;;;5120460;27;20043;-80
2021/03/31 16:12:33;;;;;;;12.52;6.72;;;28.40;28.20;;;;;;5139564;27;20051;-81
2021/03/31 16:15:45;;;;;;;16.67;7.93;;;28.60;28.30;;;;;;5109445;27;20070;-77
2021/03/31 16:18:21;;;;;;;14.25;6.55;;;29.60;27.90;;;;;;5087153;27;20070;-80
2021/03/31 16:20:59;;;;;;;15.23;7.03;;;29.50;27.60;;;;;;5115011;27;20594;-80
2021/03/31 16:23:41;;;;;;;18.13;7.65;;;28.70;27.90;;;;;;5133772;27;20055;-80
2021/03/31 16:26:09;;;;;;;13.85;6.68;;;27.70;28.60;;;;;;5127404;27;20440;-80
2021/03/31 16:28:52;;;;;;;13.82;6.75;;;27.00;29.10;;;;;;5137825;27;20043;-81
2021/03/31 16:31:42;;;;;;;11.80;6.53;;;26.30;29.90;;;;;;5118316;27;20057;-80
2021/03/31 16:34:19;;;;;;;13.65;6.60;;;25.80;30.00;;;;;;5105889;27;20407;-82
2021/03/31 16:37:29;;;;;;;;;;;;;;;;;;;;;
2021/03/31 16:40:11;;;;;;;14.80;8.00;;;25.00;30.80;;;;;;5124359;27;20054;-80
2021/03/31 16:42:58;;;;;;;18.70;7.20;;;24.60;31.20;;;;;;5117949;27;20050;-81
2021/03/31 16:45:57;;;;;;;15.48;6.68;;;24.50;31.70;;;;;;5129517;27;20073;-79
2021/03/31 16:48:47;;;;;;;12.57;6.55;;;24.40;31.70;;;;;;5131872;27;20052;-80
2021/03/31 16:51:32;;;;;;;14.05;6.43;;;24.20;31.70;;;;;;5134484;27;20051;-80
2021/03/31 16:54:15;;;;;;;16.80;7.85;;;24.20;31.70;;;;;;5118210;27;20142;-81
2021/03/31 17:00:34;;;;;;;13.02;6.05;;;23.80;32.20;;;;;;5121696;27;20062;-80
2021/03/31 17:04:18;;;;;;;10.90;6.00;;;23.80;32.30;;;;;;5088124;27;20142;-79
2021/03/31 17:06:50;;;;;;;14.32;6.35;;;23.70;32.30;;;;;;5080748;28;20044;-79
2021/03/31 17:09:28;;;;;;;;;;;23.60;32.40;;;;;;5099487;28;20067;-80
2021/03/31 17:11:56;;;;;;;10.23;5.40;;;23.50;32.70;;;;;;5104405;28;19920;-81
2021/03/31 17:14:35;;;;;;;15.48;6.07;;;23.30;32.80;;;;;;5091146;28;20051;-81
2021/03/31 17:17:02;;;;;;;11.00;5.40;;;23.30;33.00;;;;;;5081060;28;20056;-81
2021/03/31 17:19:37;;;;;;;17.53;6.67;;;23.20;33.10;;;;;;5108009;28;20059;-81
2021/03/31 18:14:09;;;;;;;27.25;9.95;;;19.50;42.40;;;;;;4934127;28;20034;-80
2021/03/31 18:16:56;;;;;;;30.17;10.23;;;19.40;42.70;;;;;;4991331;28;20053;-81
2021/03/31 18:19:57;;;;;;;21.55;9.48;;;19.30;43.30;;;;;;4956467;28;20532;-82
2021/03/31 18:22:39;;;;;;;;;;;19.10;43.60;;;;;;4980496;28;20081;-80
2021/03/31 18:25:41;;;;;;;24.05;9.52;;;19.10;43.50;;;;;;4988784;28;20471;-80
2021/03/31 18:28:21;;;;;;;21.27;8.37;;;19.00;43.80;;;;;;4963895;28;20065;-81
2021/03/31 18:31:31;;;;;;;;;;;;;;;;;;;;;
2021/03/31 18:34:29;;;;;;;;;;;;;;;;;;;;;
2021/03/31 18:40:06;;;;;;;25.23;12.52;;;18.60;45.80;;;;;;5098791;28;20070;-80
2021/03/31 18:43:00;;;;;;;23.70;10.90;;;18.60;46.00;;;;;;5114294;28;20406;-81
2021/03/31 18:45:56;;;;;;;17.55;9.27;;;18.50;46.60;;;;;;5105671;28;20374;-80
2021/03/31 18:48:59;;;;;;;18.80;9.68;;;18.30;46.60;;;;;;5098394;28;20493;-81
2021/03/31 18:51:48;;;;;;;23.25;10.85;;;18.20;46.70;;;;;;5116399;28;20070;-80
2021/03/31 18:54:32;;;;;;;23.60;11.45;;;18.20;46.90;;;;;;5099508;28;20067;-81
2021/03/31 18:57:42;;;;;;;18.67;12.05;;;18.10;46.80;;;;;;5100663;28;20520;-80
2021/03/31 19:03:54;;;;;;;21.83;11.45;;;18.00;47.50;;;;;;5095877;28;20054;-82
2021/03/31 19:06:44;;;;;;;35.42;11.82;;;18.00;47.40;;;;;;5107400;28;20367;-81
2021/03/31 19:13:35;;;;;;;29.45;11.82;;;18.30;47.40;;;;;;5099714;28;20466;-81
2021/03/31 19:19:49;;;;;;;25.60;12.32;;;18.40;47.80;;;;;;5110000;28;20047;-82
2021/03/31 19:22:48;;;;;;;28.80;11.68;;;18.00;48.00;;;;;;5095914;28;20056;-81
2021/03/31 19:29:25;;;;;;;;;;;;;;;;;;;;;
2021/03/31 19:32:34;;;;;;;23.02;9.48;;;17.40;49.60;;;;;;5112289;28;20056;-81
2021/03/31 19:35:39;;;;;;;23.60;10.80;;;17.20;50.40;;;;;;5115001;28;20044;-82
2021/03/31 19:38:55;;;;;;;24.92;10.30;;;17.10;50.80;;;;;;5027451;28;20183;-81
2021/03/31 19:50:39;;;;;;;21.77;10.98;;;16.70;52.10;;;;;;4939682;29;20074;-82
2021/03/31 19:53:41;;;;;;;23.33;11.50;;;16.70;52.10;;;;;;5034639;28;20515;-81
2021/03/31 19:56:33;;;;;;;22.77;11.02;;;16.60;52.30;;;;;;5023531;28;20059;-81
2021/03/31 19:59:32;;;;;;;21.73;11.25;;;16.60;52.60;;;;;;5029106;28;20380;-81
2021/03/31 20:05:28;;;;;;;23.42;13.07;;;16.50;53.00;;;;;;5027052;28;20072;-80
2021/03/31 20:08:41;;;;;;;24.75;12.45;;;16.40;53.30;;;;;;5059328;28;20048;-80
2021/03/31 20:11:16;;;;;;;27.48;13.02;;;16.30;53.50;;;;;;5041201;28;20068;-80
2021/03/31 20:17:28;;;;;;;27.73;12.85;;;16.20;54.00;;;;;;5065512;28;20056;-81
2021/03/31 20:20:22;;;;;;;25.95;13.65;;;16.10;54.40;;;;;;5038168;28;20068;-81
2021/03/31 20:22:52;;;;;;;28.33;13.20;;;16.10;54.60;;;;;;5061935;28;20045;-81
2021/03/31 20:25:54;;;;;;;;;;;;;;;;;;;;;
2021/03/31 20:28:36;;;;;;;31.50;15.32;;;15.90;54.40;;;;;;5019812;28;20160;-81
2021/03/31 20:31:08;;;;;;;31.65;15.68;;;15.90;54.50;;;;;;5093550;28;20062;-81
2021/03/31 20:33:55;;;;;;;;;;;;;;;;;;;;;
2021/03/31 20:36:38;;;;;;;28.85;14.75;;;15.80;54.70;;;;;;5112420;28;20044;-81
2021/03/31 20:39:19;;;;;;;30.55;15.48;;;15.70;55.00;;;;;;5116925;28;20040;-81
2021/03/31 20:42:00;;;;;;;30.17;16.10;;;15.60;55.20;;;;;;5084836;28;20052;-81
2021/03/31 20:44:47;;;;;;;29.98;16.23;;;15.60;55.50;;;;;;5071420;28;20048;-81
2021/03/31 20:47:22;;;;;;;30.42;16.80;;;15.50;55.80;;;;;;5090453;28;20117;-81
2021/03/31 20:49:52;;;;;;;35.00;17.52;;;15.40;56.00;;;;;;5099293;28;20363;-81
2021/03/31 20:55:42;;;;;;;37.03;19.50;;;15.40;56.20;;;;;;5094473;28;20035;-81
2021/03/31 20:58:10;;;;;;;34.28;19.30;;;15.30;56.50;;;;;;5093437;28;20051;-82
2021/03/31 21:00:41;;;;;;;39.50;21.63;;;15.30;56.80;;;;;;5100350;28;20054;-79
2021/03/31 21:03:10;;;;;;;49.05;27.42;;;15.30;56.80;;;;;;5094881;28;20055;-82
2021/03/31 21:05:43;;;;;;;47.53;22.55;;;15.30;57.20;;;;;;5109503;28;20055;-79
2021/03/31 21:08:12;;;;;;;52.97;23.35;;;15.30;57.10;;;;;;5101561;28;20052;-81
2021/03/31 21:10:41;;;;;;;39.00;20.73;;;15.40;57.30;;;;;;5100475;28;20066;-82
2021/03/31 21:13:09;;;;;;;35.72;20.15;;;15.40;57.70;;;;;;5113336;28;20051;-80
2021/03/31 21:15:38;;;;;;;;;;;15.50;57.40;;;;;;5101945;28;20056;-82
2021/03/31 21:18:14;;;;;;;39.08;19.08;;;15.60;57.70;;;;;;5092392;28;20373;-81
2021/03/31 21:20:43;;;;;;;40.05;18.10;;;15.50;57.60;;;;;;5103186;28;20052;-82
2021/03/31 21:23:11;;;;;;;43.50;20.73;;;16.00;56.90;;;;;;5114442;28;20032;-83
2021/03/31 21:25:39;;;;;;;38.73;19.37;;;16.00;56.50;;;;;;5097873;28;20052;-84
2021/03/31 21:28:06;;;;;;;40.45;21.08;;;15.90;57.30;;;;;;5106656;28;20040;-83
2021/03/31 21:30:35;;;;;;;39.28;19.90;;;15.70;57.70;;;;;;5094822;28;20055;-81
2021/03/31 21:33:03;;;;;;;22.15;11.13;;;15.70;57.60;;;;;;5095982;28;20043;-83
2021/03/31 21:35:31;;;;;;;27.33;11.90;;;15.60;55.20;;;;;;5090072;28;20044;-82
2021/03/31 21:38:00;;;;;;;28.60;13.15;;;15.70;54.60;;;;;;5092089;28;20811;-83
2021/03/31 21:40:34;;;;;;;24.67;13.35;;;15.80;54.30;;;;;;5095209;28;20491;-80
2021/03/31 21:43:04;;;;;;;28.17;12.48;;;15.90;54.10;;;;;;5106950;28;20055;-82
2021/03/31 21:45:43;;;;;;;27.42;12.85;;;16.10;53.40;;;;;;5092673;28;20047;-82
2021/03/31 21:48:13;;;;;;;26.63;12.35;;;16.20;53.30;;;;;;5090936;28;20051;-82
2021/03/31 21:50:41;;;;;;;25.23;12.30;;;16.20;53.30;;;;;;5101152;28;20058;-83
2021/03/31 21:53:08;;;;;;;24.25;11.63;;;16.10;53.50;;;;;;5108494;28;20569;-83
2021/03/31 21:55:37;;;;;;;33.45;14.38;;;15.80;54.20;;;;;;5111072;28;20063;-83
2021/03/31 21:58:11;;;;;;;31.25;15.68;;;15.50;55.70;;;;;;5094857;28;20455;-81
2021/03/31 22:00:38;;;;;;;36.92;16.10;;;15.20;57.40;;;;;;5094815;28;20382;-83
2021/03/31 22:03:09;;;;;;;34.17;16.58;;;15.00;59.40;;;;;;5094180;28;20047;-83
2021/03/31 22:05:53;;;;;;;;;;;;;;;;;;;;;
2021/03/31 22:08:30;;;;;;;21.88;12.35;;;14.60;61.10;;;;;;5118240;28;20065;-83
2021/03/31 22:11:09;;;;;;;33.40;14.55;;;14.60;58.90;;;;;;5086979;28;20047;-83
2021/03/31 22:13:37;;;;;;;27.83;13.02;;;14.60;59.50;;;;;;5084723;28;20040;-83
2021/03/31 22:16:06;;;;;;;24.20;12.48;;;15.00;57.70;;;;;;5082556;28;20055;-82
2021/03/31 22:18:35;;;;;;;;;;;15.20;56.90;;;;;;5087382;28;20121;-83
2021/03/31 22:21:06;;;;;;;27.35;13.93;;;15.20;56.80;;;;;;5094660;28;19930;-83
2021/03/31 22:23:47;;;;;;;25.38;12.75;;;15.10;57.20;;;;;;5098454;28;20811;-82
2021/03/31 22:26:18;;;;;;;27.70;12.52;;;14.90;58.20;;;;;;5092865;28;20051;-86
2021/03/31 22:28:59;;;;;;;30.35;14.77;;;14.80;58.50;;;;;;5113280;28;20055;-84
2021/03/31 22:31:30;;;;;;;28.70;13.90;;;14.70;59.90;;;;;;5090614;28;20060;-83
2021/03/31 22:34:00;;;;;;;30.60;15.88;;;14.50;61.10;;;;;;5118642;28;20058;-84
2021/03/31 22:36:31;;;;;;;35.63;16.35;;;14.30;62.70;;;;;;5101418;28;20044;-85
2021/03/31 22:39:01;;;;;;;25.70;14.18;;;14.20;63.30;;;;;;5088047;28;20067;-86
2021/03/31 22:41:31;;;;;;;28.05;14.98;;;14.10;63.30;;;;;;5115671;28;20386;-86
2021/03/31 22:44:06;;;;;;;34.75;15.32;;;14.10;64.00;;;;;;5114844;28;20070;-84
2021/03/31 22:46:34;;;;;;;29.20;13.25;;;14.00;64.70;;;;;;5107655;28;20043;-86
2021/03/31 22:49:14;;;;;;;27.02;13.27;;;14.00;64.60;;;;;;5101959;28;20051;-86
2021/03/31 22:51:52;;;;;;;26.40;13.27;;;14.00;63.60;;;;;;5101589;28;20047;-86
2021/03/31 22:54:22;;;;;;;24.75;12.38;;;14.40;62.60;;;;;;5100683;28;20162;-87
2021/03/31 22:57:05;;;;;;;29.83;13.15;;;14.50;62.10;;;;;;5094708;28;20048;-87
2021/03/31 22:59:33;;;;;;;27.35;12.32;;;14.40;62.70;;;;;;5079988;28;20048;-86
2021/03/31 23:02:05;;;;;;;29.73;12.43;;;14.60;62.50;;;;;;5088990;28;20200;-87
2021/03/31 23:04:37;;;;;;;23.60;11.57;;;14.90;60.90;;;;;;5080704;28;20072;-88
2021/03/31 23:07:06;;;;;;;25.50;11.52;;;15.20;60.10;;;;;;5088031;28;20059;-88
2021/03/31 23:09:34;;;;;;;25.35;12.23;;;15.20;60.00;;;;;;5101475;28;20042;-88
2021/03/31 23:12:06;;;;;;;22.48;11.35;;;15.10;60.70;;;;;;5100059;28;20052;-88
2021/03/31 23:14:37;;;;;;;27.95;13.00;;;14.80;61.50;;;;;;5080541;28;20056;-87
2021/03/31 23:17:15;;;;;;;;;;;;;;;;;;;;;
2021/03/31 23:19:46;;;;;;;24.63;12.40;;;14.20;64.30;;;;;;5079591;28;20052;-84
2021/03/31 23:22:36;;;;;;;25.42;11.98;;;13.90;65.80;;;;;;5076149;28;20059;-86
2021/03/31 23:25:05;;;;;;;21.67;11.63;;;13.80;67.10;;;;;;5085276;28;20166;-86
2021/03/31 23:27:42;;;;;;;25.40;12.05;;;13.70;67.60;;;;;;5096416;28;20044;-85
2021/03/31 23:30:16;;;;;;;24.77;12.73;;;13.60;68.80;;;;;;5078720;28;20410;-85
2021/03/31 23:32:44;;;;;;;23.65;11.85;;;13.50;69.90;;;;;;5079470;28;20463;-85
2021/03/31 23:35:18;;;;;;;23.73;11.27;;;13.50;70.80;;;;;;5096134;28;20048;-85
2021/03/31 23:37:48;;;;;;;24.33;11.77;;;13.60;70.40;;;;;;5079311;28;20423;-86
2021/03/31 23:40:20;;;;;;;23.40;11.35;;;13.70;70.90;;;;;;5074061;28;20048;-86
2021/03/31 23:42:48;;;;;;;29.63;12.45;;;14.30;69.10;;;;;;5078995;28;20363;-87
2021/03/31 23:45:23;;;;;;;26.98;11.93;;;14.30;68.40;;;;;;5082621;28;20048;-86
2021/03/31 23:47:51;;;;;;;25.45;11.68;;;14.50;67.90;;;;;;5095993;28;20052;-86
2021/03/31 23:50:21;;;;;;;23.77;11.50;;;14.30;68.10;;;;;;5096213;28;20044;-86
2021/03/31 23:52:51;;;;;;;24.23;11.07;;;14.00;69.40;;;;;;5081044;28;20048;-85
2021/03/31 23:55:20;;;;;;;21.45;10.90;;;13.80;70.80;;;;;;5081036;28;20052;-86
2021/03/31 23:57:48;;;;;;;29.27;11.20;;;13.70;71.40;;;;;;5100858;28;20051;-87
